HJM weather

Jumex 303 Heliport
Miguel Hidalgo, Ciudad de México, Mexico

Public forecast

Using degrees Celsius for public forecast. Weather courtesy of forecast.io.

Closest aviation weather report (METAR) to Jumex 303 Heliport

Closest report is Licenciado Benito Juarez International Airport, 7.4 nm (13.8 km) E. Retrieved 2019/12/15 11:45 UTC (1 hour ago):

MMMX 151145Z 07005KT 6SM SKC 06/M02 A3030 NOSIG RMK SLP123 52003 958 HZY

Closest aviation forecast (TAF) to Jumex 303 Heliport

Closest forecast is Licenciado Benito Juarez International Airport, 7.4 nm (13.8 km) E. Retrieved 2019/12/15 12:15 UTC (36 minutes ago):

TAF MMMX 151112Z 1512/1618 05005KT 6SM HZ SKC TX24/1521Z TN07/1512Z FM151900 22010KT P6SM SKC FM160200 22005KT P6SM SCT250 FM161600 22008KT P6SM SKC